Time,TemperatureF,DewpointF,PressureIn,WindDirection,WindDirectionDegrees,WindSpeedMPH,WindSpeedGustMPH,Humidity,HourlyPrecipIn,Conditions,Clouds,dailyrainin,SoftwareType,DateUTC
2013-07-14 00:02:00,71.0,71.0,30.37,ENE,62,0.0,20.0,99,0.03,,,0.31,,2013-07-14 04:02:00,
2013-07-14 00:11:00,71.0,71.0,30.37,ENE,62,0.0,20.0,99,0.03,,,0.31,,2013-07-14 04:11:00,
2013-07-14 00:22:00,71.0,71.0,30.37,ENE,62,0.0,0.0,99,0.00,,,0.33,,2013-07-14 04:22:00,
2013-07-14 00:32:00,71.0,71.0,30.37,ENE,62,0.0,0.0,99,0.00,,,0.33,,2013-07-14 04:32:00,
2013-07-14 00:42:00,71.0,71.0,30.37,ENE,62,0.0,0.0,99,0.00,,,0.33,,2013-07-14 04:42:00,
2013-07-14 00:54:00,71.0,71.0,30.37,ENE,62,0.0,0.0,99,0.00,,,0.33,,2013-07-14 04:54:00,
2013-07-14 01:02:00,71.0,71.0,30.37,ENE,62,0.0,0.0,99,0.00,,,0.33,,2013-07-14 05:02:00,
2013-07-14 01:23:00,71.0,71.0,30.36,ENE,62,0.0,13.0,99,0.00,,,0.33,,2013-07-14 05:23:00,
2013-07-14 01:32:00,71.0,71.0,30.36,ENE,62,0.0,13.0,99,0.00,,,0.33,,2013-07-14 05:32:00,
2013-07-14 01:43:00,71.0,71.0,30.36,ENE,62,0.0,13.0,99,0.00,,,0.33,,2013-07-14 05:43:00,
2013-07-14 01:53:00,71.0,71.0,30.36,ENE,62,0.0,13.0,99,0.00,,,0.33,,2013-07-14 05:53:00,
2013-07-14 02:01:00,71.0,71.0,30.36,ENE,62,0.0,13.0,99,0.00,,,0.33,,2013-07-14 06:01:00,
2013-07-14 02:32:00,71.0,71.0,30.35,ENE,62,0.0,13.0,99,0.00,,,0.33,,2013-07-14 06:32:00,
2013-07-14 02:42:00,71.0,71.0,30.35,ENE,62,0.0,13.0,99,0.00,,,0.33,,2013-07-14 06:42:00,
2013-07-14 02:53:00,71.0,71.0,30.35,ENE,62,0.0,13.0,99,0.00,,,0.33,,2013-07-14 06:53:00,
2013-07-14 03:02:00,71.0,71.0,30.35,ENE,62,0.0,13.0,99,0.00,,,0.33,,2013-07-14 07:02:00,
2013-07-14 03:22:00,71.0,71.0,30.35,ENE,62,0.0,13.0,99,0.00,,,0.33,,2013-07-14 07:22:00,
2013-07-14 03:33:00,71.0,71.0,30.35,ENE,62,0.0,13.0,99,0.00,,,0.33,,2013-07-14 07:33:00,
2013-07-14 03:43:00,71.0,71.0,30.35,ENE,62,0.0,13.0,99,0.00,,,0.33,,2013-07-14 07:43:00,
2013-07-14 03:53:00,71.0,71.0,30.35,ENE,62,0.0,13.0,99,0.00,,,0.33,,2013-07-14 07:53:00,
2013-07-14 04:01:00,71.0,71.0,30.35,ENE,62,0.0,13.0,99,0.00,,,0.33,,2013-07-14 08:01:00,
2013-07-14 04:22:00,71.0,71.0,30.35,ENE,62,0.0,13.0,99,0.00,,,0.33,,2013-07-14 08:22:00,
2013-07-14 04:32:00,71.0,71.0,30.35,ENE,62,0.0,13.0,99,0.00,,,0.33,,2013-07-14 08:32:00,
2013-07-14 04:42:00,71.0,71.0,30.35,ENE,62,0.0,13.0,99,0.00,,,0.33,,2013-07-14 08:42:00,
2013-07-14 04:53:00,71.0,71.0,30.35,ENE,62,0.0,13.0,99,0.00,,,0.33,,2013-07-14 08:53:00,
2013-07-14 05:01:00,71.0,71.0,30.35,ENE,62,0.0,13.0,99,0.00,,,0.33,,2013-07-14 09:01:00,
2013-07-14 07:53:00,73.0,73.0,30.37,ENE,62,0.0,13.0,99,0.00,,,0.33,,2013-07-14 11:53:00,
2013-07-14 08:02:00,73.0,73.0,30.37,ENE,62,0.0,13.0,99,0.00,,,0.33,,2013-07-14 12:02:00,
2013-07-14 08:12:00,73.0,73.0,30.37,ENE,62,0.0,13.0,99,0.00,,,0.33,,2013-07-14 12:12:00,
2013-07-14 08:22:00,73.0,73.0,30.37,ENE,62,0.0,13.0,99,0.00,,,0.33,,2013-07-14 12:22:00,
2013-07-14 08:33:00,73.0,73.0,30.37,ENE,62,0.0,13.0,99,0.00,,,0.33,,2013-07-14 12:33:00,
2013-07-14 08:53:00,74.0,74.0,30.37,WNW,284,0.0,13.0,99,0.00,,,0.33,,2013-07-14 12:53:00,
2013-07-14 09:01:00,74.0,74.0,30.37,WNW,284,0.0,13.0,99,0.00,,,0.33,,2013-07-14 13:01:00,
2013-07-14 09:11:00,74.0,74.0,30.37,WNW,284,0.0,13.0,99,0.00,,,0.33,,2013-07-14 13:11:00,
2013-07-14 09:32:00,75.0,75.0,30.37,WNW,287,0.0,13.0,99,0.00,,,0.33,,2013-07-14 13:32:00,
2013-07-14 09:42:00,75.0,75.0,30.37,WNW,287,0.0,13.0,99,0.00,,,0.33,,2013-07-14 13:42:00,
2013-07-14 09:53:00,76.0,76.0,30.37,West,268,0.0,13.0,99,0.00,,,0.33,,2013-07-14 13:53:00,
2013-07-14 10:02:00,76.0,76.0,30.37,West,268,0.0,13.0,99,0.00,,,0.33,,2013-07-14 14:02:00,
2013-07-14 10:11:00,76.0,76.0,30.37,West,268,0.0,13.0,99,0.00,,,0.33,,2013-07-14 14:11:00,
2013-07-14 10:33:00,76.0,76.0,30.37,West,268,0.0,13.0,99,0.00,,,0.33,,2013-07-14 14:33:00,
2013-07-14 10:53:00,79.0,79.0,30.37,NW,310,1.0,13.0,99,0.00,,,0.33,,2013-07-14 14:53:00,
2013-07-14 11:01:00,79.0,79.0,30.37,NW,310,1.0,13.0,99,0.00,,,0.33,,2013-07-14 15:01:00,
2013-07-14 11:12:00,79.0,79.0,30.37,NW,310,1.0,13.0,99,0.00,,,0.33,,2013-07-14 15:12:00,
2013-07-14 11:22:00,79.0,79.0,30.37,NW,310,1.0,13.0,99,0.00,,,0.33,,2013-07-14 15:22:00,
2013-07-14 11:32:00,79.0,79.0,30.37,NW,310,1.0,13.0,99,0.00,,,0.33,,2013-07-14 15:32:00,
2013-07-14 12:22:00,78.0,77.0,30.35,SE,143,1.0,13.0,98,0.00,,,0.33,,2013-07-14 16:22:00,
2013-07-14 12:32:00,78.0,77.0,30.35,SE,143,1.0,13.0,98,0.00,,,0.33,,2013-07-14 16:32:00,
2013-07-14 12:43:00,78.0,77.0,30.35,SE,143,1.0,13.0,98,0.00,,,0.33,,2013-07-14 16:43:00,
2013-07-14 12:54:00,79.0,79.0,30.34,SSW,193,0.0,13.0,99,0.00,,,0.33,,2013-07-14 16:54:00,
2013-07-14 13:03:00,79.0,79.0,30.34,SSW,193,0.0,13.0,99,0.00,,,0.33,,2013-07-14 17:03:00,
2013-07-14 13:12:00,79.0,79.0,30.34,SSW,193,0.0,13.0,99,0.00,,,0.33,,2013-07-14 17:12:00,
2013-07-14 13:22:00,79.0,79.0,30.34,SSW,193,0.0,13.0,99,0.00,,,0.33,,2013-07-14 17:22:00,
2013-07-14 13:32:00,79.0,79.0,30.34,SSW,193,0.0,13.0,99,0.00,,,0.33,,2013-07-14 17:32:00,
2013-07-14 14:22:00,79.0,76.0,30.32,SW,234,0.0,13.0,91,0.00,,,0.33,,2013-07-14 18:22:00,
2013-07-14 14:32:00,79.0,76.0,30.32,SW,234,0.0,13.0,91,0.00,,,0.33,,2013-07-14 18:32:00,
2013-07-14 14:42:00,79.0,76.0,30.32,SW,234,0.0,13.0,91,0.00,,,0.33,,2013-07-14 18:42:00,
2013-07-14 14:52:00,79.0,76.0,30.32,South,174,0.0,13.0,92,0.00,,,0.08,,2013-07-14 18:52:00,
2013-07-14 15:02:00,79.0,76.0,30.32,South,174,0.0,13.0,92,0.00,,,0.08,,2013-07-14 19:02:00,
2013-07-14 15:12:00,79.0,76.0,30.32,South,174,0.0,13.0,92,0.00,,,0.08,,2013-07-14 19:12:00,
2013-07-14 15:22:00,78.0,76.0,30.31,SE,136,1.0,13.0,93,0.00,,,0.08,,2013-07-14 19:22:00,
2013-07-14 15:32:00,78.0,76.0,30.31,SE,136,1.0,13.0,93,0.00,,,0.08,,2013-07-14 19:32:00,
2013-07-14 15:43:00,78.0,76.0,30.31,SE,136,1.0,13.0,93,0.00,,,0.08,,2013-07-14 19:43:00,
2013-07-14 15:53:00,80.0,77.0,30.30,SSE,163,1.0,13.0,91,0.00,,,0.08,,2013-07-14 19:53:00,
2013-07-14 16:02:00,80.0,77.0,30.30,SSE,163,1.0,13.0,91,0.00,,,0.08,,2013-07-14 20:02:00,
2013-07-14 16:11:00,80.0,77.0,30.30,SSE,163,1.0,13.0,91,0.00,,,0.08,,2013-07-14 20:11:00,
2013-07-14 16:22:00,80.0,77.0,30.30,SSW,205,0.0,13.0,92,0.00,,,0.08,,2013-07-14 20:22:00,
2013-07-14 16:32:00,80.0,77.0,30.30,SSW,205,0.0,13.0,92,0.00,,,0.08,,2013-07-14 20:32:00,
2013-07-14 16:43:00,80.0,77.0,30.30,SSW,205,0.0,13.0,92,0.00,,,0.08,,2013-07-14 20:43:00,
2013-07-14 16:53:00,79.0,76.0,30.30,SSE,165,0.0,13.0,92,0.00,,,0.08,,2013-07-14 20:53:00,
2013-07-14 17:02:00,79.0,76.0,30.30,SSE,165,0.0,13.0,92,0.00,,,0.08,,2013-07-14 21:02:00,
2013-07-14 17:11:00,79.0,76.0,30.30,SSE,165,0.0,13.0,92,0.00,,,0.08,,2013-07-14 21:11:00,
2013-07-14 17:22:00,78.0,76.0,30.29,SW,227,0.0,13.0,93,0.00,,,0.08,,2013-07-14 21:22:00,
2013-07-14 17:32:00,78.0,76.0,30.29,SW,227,0.0,13.0,93,0.00,,,0.08,,2013-07-14 21:32:00,
2013-07-14 17:43:00,78.0,76.0,30.29,SW,227,0.0,13.0,93,0.00,,,0.08,,2013-07-14 21:43:00,
2013-07-14 17:53:00,76.0,74.0,30.28,ESE,106,1.0,13.0,92,0.00,,,0.05,,2013-07-14 21:53:00,
2013-07-14 18:01:00,76.0,74.0,30.28,ESE,106,1.0,13.0,92,0.00,,,0.05,,2013-07-14 22:01:00,
2013-07-14 18:11:00,76.0,74.0,30.28,ESE,106,1.0,13.0,92,0.00,,,0.05,,2013-07-14 22:11:00,
2013-07-14 18:32:00,76.0,74.0,30.28,NE,45,0.0,13.0,93,0.00,,,0.05,,2013-07-14 22:32:00,
2013-07-14 18:42:00,76.0,74.0,30.28,NE,45,0.0,13.0,93,0.00,,,0.05,,2013-07-14 22:42:00,
2013-07-14 18:53:00,75.0,73.0,30.29,NE,46,0.0,13.0,95,0.00,,,0.05,,2013-07-14 22:53:00,
2013-07-14 19:01:00,75.0,73.0,30.29,NE,46,0.0,13.0,95,0.00,,,0.05,,2013-07-14 23:01:00,
2013-07-14 19:11:00,75.0,73.0,30.29,NE,46,0.0,13.0,95,0.00,,,0.05,,2013-07-14 23:11:00,
2013-07-14 20:32:00,74.0,74.0,30.28,SW,217,0.0,13.0,99,0.00,,,0.05,,2013-07-15 00:32:00,
2013-07-14 20:43:00,74.0,74.0,30.28,SW,217,0.0,13.0,99,0.00,,,0.05,,2013-07-15 00:43:00,
2013-07-14 20:53:00,73.0,73.0,30.28,SW,217,0.0,13.0,99,0.00,,,0.05,,2013-07-15 00:53:00,
2013-07-14 21:01:00,73.0,73.0,30.28,SW,217,0.0,13.0,99,0.00,,,0.05,,2013-07-15 01:01:00,
2013-07-14 21:11:00,73.0,73.0,30.28,SW,217,0.0,13.0,99,0.00,,,0.05,,2013-07-15 01:11:00,
2013-07-14 21:22:00,72.0,72.0,30.29,SW,217,0.0,13.0,99,0.00,,,0.05,,2013-07-15 01:22:00,
2013-07-14 21:32:00,72.0,72.0,30.29,SW,217,0.0,13.0,99,0.00,,,0.05,,2013-07-15 01:32:00,
2013-07-14 21:43:00,72.0,72.0,30.29,SW,217,0.0,13.0,99,0.00,,,0.05,,2013-07-15 01:43:00,
2013-07-14 21:53:00,73.0,73.0,30.29,SW,217,0.0,13.0,99,0.00,,,0.05,,2013-07-15 01:53:00,
2013-07-14 22:02:00,73.0,73.0,30.29,SW,217,0.0,13.0,99,0.00,,,0.05,,2013-07-15 02:02:00,
2013-07-14 22:11:00,73.0,73.0,30.29,SW,217,0.0,13.0,99,0.00,,,0.05,,2013-07-15 02:11:00,
2013-07-14 22:22:00,72.0,72.0,30.29,SW,217,0.0,13.0,99,0.00,,,0.05,,2013-07-15 02:22:00,
2013-07-14 22:32:00,72.0,72.0,30.29,SW,217,0.0,13.0,99,0.00,,,0.05,,2013-07-15 02:32:00,
2013-07-14 22:42:00,72.0,72.0,30.29,SW,217,0.0,13.0,99,0.00,,,0.05,,2013-07-15 02:42:00,
2013-07-14 23:11:00,69.0,69.0,30.29,West,268,0.0,13.0,99,0.00,,,0.05,,2013-07-15 03:11:00,
2013-07-14 23:22:00,70.0,70.0,30.29,NW,325,0.0,13.0,99,0.00,,,0.05,,2013-07-15 03:22:00,
2013-07-14 23:32:00,70.0,70.0,30.29,NW,325,0.0,13.0,99,0.00,,,0.05,,2013-07-15 03:32:00,
2013-07-14 23:43:00,70.0,70.0,30.29,NW,325,0.0,13.0,99,0.00,,,0.05,,2013-07-15 03:43:00,